Freire 705 — YBIE2 — position and weather

sailwx.info

Track history (hours):
 
Tides and Currents Weather Stations Pressure Air Temp Water Temp Dewpoint Dewpoint Depression Visibility Wind Speed Wind Dir Waves Ship Positions

Freire 705

Last reported at 2017-Oct-02 15:17 UTC. Time now 2017-Oct-17 06:11 UTC.
Position N 37°36' E 016°12'.
Warning: this ship's position is 14 days out of date.

Length 111 m; draft 6 m.

Type: Sailing vessel. MMSI: 225303000.

Date/timePositionNaut miles runAvg speedWind from/ knotsBaromVisibWave heightAir tempDewpointWater temp
2017-Oct-02 15:17N 37°36' E 016°12'411.5
2017-Oct-02 14:58N 37°37' E 016°08'1010.9
2017-Oct-02 14:05N 37°41' E 015°57'110.4
2017-Oct-02 13:58N 37°42' E 015°55'610.3
2017-Oct-02 13:24N 37°44' E 015°49'510.4
2017-Oct-02 12:57N 37°46' E 015°43'510.5
2017-Oct-02 12:30N 37°48' E 015°38'510.3
2017-Oct-02 12:00N 37°51' E 015°32'511.1
2017-Oct-02 11:30N 37°56' E 015°32'510.3
2017-Oct-02 11:00N 38°01' E 015°32'510.5
2017-Oct-02 10:30N 38°06' E 015°33'510.0
2017-Oct-02 10:00N 38°11' E 015°35'510.1
2017-Oct-02 09:30N 38°15' E 015°39'4 8.6
2017-Oct-02 09:00N 38°20' E 015°39'611.1
2017-Oct-02 08:30N 38°23' E 015°34'611.4
2017-Oct-02 08:00N 38°27' E 015°29'611.8
2017-Oct-02 07:30N 38°31' E 015°23'611.7
2017-Oct-02 07:00N 38°35' E 015°17'611.7
2017-Oct-02 06:30N 38°40' E 015°12'611.6
2017-Oct-02 05:59N 38°44' E 015°07'  
Track history (hours):
 
Tides and Currents Weather Stations Pressure Air Temp Water Temp Dewpoint Dewpoint Depression Visibility Wind Speed Wind Dir Waves Ship Positions

Freire 705

Last reported at 2017-Oct-02 15:17 UTC. Time now 2017-Oct-17 06:11 UTC.
Position N 37°36' E 016°12'.
Warning: this ship's position is 14 days out of date.

Length 111 m; draft 6 m.

Type: Sailing vessel. MMSI: 225303000.

Date/timePositionNaut miles runAvg speedWind from/ knotsBaromVisibWave heightAir tempDewpointWater temp
2017-Oct-02 15:17N 37°36' E 016°12'411.5
2017-Oct-02 14:58N 37°37' E 016°08'1010.9
2017-Oct-02 14:05N 37°41' E 015°57'110.4
2017-Oct-02 13:58N 37°42' E 015°55'610.3
2017-Oct-02 13:24N 37°44' E 015°49'510.4
2017-Oct-02 12:57N 37°46' E 015°43'510.5
2017-Oct-02 12:30N 37°48' E 015°38'510.3
2017-Oct-02 12:00N 37°51' E 015°32'511.1
2017-Oct-02 11:30N 37°56' E 015°32'510.3
2017-Oct-02 11:00N 38°01' E 015°32'510.5
2017-Oct-02 10:30N 38°06' E 015°33'510.0
2017-Oct-02 10:00N 38°11' E 015°35'510.1
2017-Oct-02 09:30N 38°15' E 015°39'4 8.6
2017-Oct-02 09:00N 38°20' E 015°39'611.1
2017-Oct-02 08:30N 38°23' E 015°34'611.4
2017-Oct-02 08:00N 38°27' E 015°29'611.8
2017-Oct-02 07:30N 38°31' E 015°23'611.7
2017-Oct-02 07:00N 38°35' E 015°17'611.7
2017-Oct-02 06:30N 38°40' E 015°12'611.6
2017-Oct-02 05:59N 38°44' E 015°07'  

Dump ship's entire track history